Map

Track Data

SID SEASON NUMBER BASIN SUBBASIN NAME ISO_TIME NATURE LAT LON WMO_WIND WMO_PRES WMO_AGENCY TRACK_TYPE DIST2LAND LANDFALL IFLAG USA_AGENCY USA_ATCF_ID USA_LAT USA_LON USA_RECORD USA_STATUS USA_WIND USA_PRES USA_SSHS USA_R34_NE USA_R34_SE USA_R34_SW USA_R34_NW USA_R50_NE USA_R50_SE USA_R50_SW USA_R50_NW USA_R64_NE USA_R64_SE USA_R64_SW USA_R64_NW USA_POCI USA_ROCI USA_RMW USA_EYE TOKYO_LAT TOKYO_LON TOKYO_GRADE TOKYO_WIND TOKYO_PRES TOKYO_R50_DIR TOKYO_R50_LONG TOKYO_R50_SHORT TOKYO_R30_DIR TOKYO_R30_LONG TOKYO_R30_SHORT TOKYO_LAND CMA_LAT CMA_LON CMA_CAT CMA_WIND CMA_PRES HKO_LAT HKO_LON HKO_CAT HKO_WIND HKO_PRES NEWDELHI_LAT NEWDELHI_LON NEWDELHI_GRADE NEWDELHI_WIND NEWDELHI_PRES NEWDELHI_CI NEWDELHI_DP NEWDELHI_POCI REUNION_LAT REUNION_LON REUNION_TYPE REUNION_WIND REUNION_PRES REUNION_TNUM REUNION_CI REUNION_RMW REUNION_R34_NE REUNION_R34_SE REUNION_R34_SW REUNION_R34_NW REUNION_R50_NE REUNION_R50_SE REUNION_R50_SW REUNION_R50_NW REUNION_R64_NE REUNION_R64_SE REUNION_R64_SW REUNION_R64_NW BOM_LAT BOM_LON BOM_TYPE BOM_WIND BOM_PRES BOM_TNUM BOM_CI BOM_RMW BOM_R34_NE BOM_R34_SE BOM_R34_SW BOM_R34_NW BOM_R50_NE BOM_R50_SE BOM_R50_SW BOM_R50_NW BOM_R64_NE BOM_R64_SE BOM_R64_SW BOM_R64_NW BOM_ROCI BOM_POCI BOM_EYE BOM_POS_METHOD BOM_PRES_METHOD NADI_LAT NADI_LON NADI_CAT NADI_WIND NADI_PRES WELLINGTON_LAT WELLINGTON_LON WELLINGTON_WIND WELLINGTON_PRES DS824_LAT DS824_LON DS824_STAGE DS824_WIND DS824_PRES TD9636_LAT TD9636_LON TD9636_STAGE TD9636_WIND TD9636_PRES TD9635_LAT TD9635_LON TD9635_WIND TD9635_PRES TD9635_ROCI NEUMANN_LAT NEUMANN_LON NEUMANN_CLASS NEUMANN_WIND NEUMANN_PRES MLC_LAT MLC_LON MLC_CLASS MLC_WIND MLC_PRES USA_GUST BOM_GUST BOM_GUST_PER REUNION_GUST REUNION_GUST_PER USA_SEAHGT USA_SEARAD_NE USA_SEARAD_SE USA_SEARAD_SW USA_SEARAD_NW STORM_SPEED STORM_DIR
1935203N10154 1935 38 WP MM NOT_NAMED 1935-07-21 21:00:00 NR 10.0000 154.300 main 1472 1469 __________O___ -1 10.0000 154.300 2 7 294
1935203N10154 1935 38 WP MM NOT_NAMED 1935-07-22 00:00:00 NR 10.1394 153.983 main 1474 1474 __________P___ -1 10.1394 153.983 2 7 296
1935203N10154 1935 38 WP MM NOT_NAMED 1935-07-22 03:00:00 NR 10.3028 153.663 main 1489 1487 __________P___ -1 10.3028 153.663 2 7 301
1935203N10154 1935 38 WP MM NOT_NAMED 1935-07-22 06:00:00 NR 10.5149 153.336 main 1502 1502 __________P___ -1 10.5149 153.336 2 8 307
1935203N10154 1935 38 WP MM NOT_NAMED 1935-07-22 09:00:00 NR 10.8000 153.000 main 1530 1530 __________O___ -1 10.8000 153.000 2 9 314
1935203N10154 1935 38 WP MM NOT_NAMED 1935-07-22 12:00:00 NR 11.1738 152.650 main 1568 1568 __________P___ -1 11.1738 152.650 2 11 319
1935203N10154 1935 38 WP MM NOT_NAMED 1935-07-22 15:00:00 NR 11.6170 152.274 main 1609 1609 __________P___ -1 11.6170 152.274 2 12 320
1935203N10154 1935 38 WP MM NOT_NAMED 1935-07-22 18:00:00 NR 12.1018 151.862 main 1661 1661 __________P___ -1 12.1018 151.862 2 13 319
1935203N10154 1935 38 WP MM NOT_NAMED 1935-07-22 21:00:00 NR 12.6000 151.400 main 1705 1705 __________O___ -1 12.6000 151.400 2 14 317
1935203N10154 1935 38 WP MM NOT_NAMED 1935-07-23 00:00:00 NR 13.1532 150.873 main 1757 1754 __________P___ -1 13.1532 150.873 2 15 316
1935203N10154 1935 38 WP MM NOT_NAMED 1935-07-23 03:00:00 NR 13.7002 150.297 main 1798 1798 __________P___ -1 13.7002 150.297 2 15 312
1935203N10154 1935 38 WP MM NOT_NAMED 1935-07-23 06:00:00 NR 14.1720 149.698 main 1843 1842 __________P___ -1 14.1720 149.698 2 14 305
1935203N10154 1935 38 WP MM NOT_NAMED 1935-07-23 09:00:00 NR 14.5000 149.100 main 1869 1867 __________O___ -1 14.5000 149.100 2 12 290
1935203N10154 1935 38 WP MM NOT_NAMED 1935-07-23 12:00:00 NR 14.5759 148.549 main 1874 1860 __________P___ -1 14.5759 148.549 2 11 271
1935203N10154 1935 38 WP MM NOT_NAMED 1935-07-23 15:00:00 NR 14.5116 148.005 main 1860 1848 __________P___ -1 14.5116 148.005 2 11 260
1935203N10154 1935 38 WP MM NOT_NAMED 1935-07-23 18:00:00 NR 14.3915 147.458 main 1848 1837 __________P___ -1 14.3915 147.458 2 11 259
1935203N10154 1935 38 WP MM NOT_NAMED 1935-07-23 21:00:00 NR 14.3000 146.900 main 1837 1837 __________O___ -1 14.3000 146.900 2 11 265
1935203N10154 1935 38 WP MM NOT_NAMED 1935-07-24 00:00:00 NR 14.3038 146.314 main 1837 1837 __________P___ -1 14.3038 146.314 2 12 273
1935203N10154 1935 38 WP MM NOT_NAMED 1935-07-24 03:00:00 NR 14.3572 145.714 main 1851 1851 __________P___ -1 14.3572 145.714 2 12 279
1935203N10154 1935 38 WP MM NOT_NAMED 1935-07-24 06:00:00 NR 14.4819 145.107 main 1867 1867 __________P___ -1 14.4819 145.107 2 12 286
1935203N10154 1935 38 WP MM NOT_NAMED 1935-07-24 09:00:00 NR 14.7000 144.500 main 1896 1896 __________O___ -1 14.7000 144.500 4 13 298
1935203N10154 1935 38 WP MM NOT_NAMED 1935-07-24 12:00:00 NR 15.1045 143.882 main 1949 1949 __________P___ -1 15.1045 143.882 4 15 307
1935203N10154 1935 38 WP MM NOT_NAMED 1935-07-24 15:00:00 NR 15.5874 143.266 main 1958 1903 __________P___ -1 15.5874 143.266 4 15 309
1935203N10154 1935 38 WP MM NOT_NAMED 1935-07-24 18:00:00 NR 16.0515 142.666 main 1905 1849 __________P___ -1 16.0515 142.666 4 14 306
1935203N10154 1935 38 WP MM NOT_NAMED 1935-07-24 21:00:00 NR 16.4000 142.100 main 1849 1797 __________O___ -1 16.4000 142.100 4 11 290
1935203N10154 1935 38 WP MM NOT_NAMED 1935-07-25 00:00:00 NR 16.4350 141.546 main 1787 1745 __________P___ -1 16.4350 141.546 4 10 268
1935203N10154 1935 38 WP MM NOT_NAMED 1935-07-25 03:00:00 NR 16.3573 141.034 main 1735 1690 __________P___ -1 16.3573 141.034 4 9 260
1935203N10154 1935 38 WP MM NOT_NAMED 1935-07-25 06:00:00 NR 16.2759 140.581 main 1690 1649 __________P___ -1 16.2759 140.581 4 8 266
1935203N10154 1935 38 WP MM NOT_NAMED 1935-07-25 09:00:00 NR 16.3000 140.200 main 1649 1624 __________O___ -1 16.3000 140.200 4 7 297
1935203N10154 1935 38 WP MM NOT_NAMED 1935-07-25 12:00:00 NR 16.6137 139.904 main 1627 1616 __________P___ -1 16.6137 139.904 4 9 326
1935203N10154 1935 38 WP MM NOT_NAMED 1935-07-25 15:00:00 NR 17.0392 139.676 main 1619 1609 __________P___ -1 17.0392 139.676 4 10 336
1935203N10154 1935 38 WP MM NOT_NAMED 1935-07-25 18:00:00 NR 17.4952 139.485 main 1617 1609 __________P___ -1 17.4952 139.485 4 9 337
1935203N10154 1935 38 WP MM NOT_NAMED 1935-07-25 21:00:00 NR 17.9000 139.300 main 1613 1601 __________O___ -1 17.9000 139.300 7 7 331
1935203N10154 1935 38 WP MM NOT_NAMED 1935-07-26 00:00:00 NR 18.0983 139.130 main 1601 1596 __________P___ -1 18.0983 139.130 7 5 316
1935203N10154 1935 38 WP MM NOT_NAMED 1935-07-26 03:00:00 NR 18.2413 138.952 main 1596 1576 __________P___ -1 18.2413 138.952 7 5 307
1935203N10154 1935 38 WP MM NOT_NAMED 1935-07-26 06:00:00 NR 18.3886 138.723 main 1576 1556 __________P___ -1 18.3886 138.723 7 6 304
1935203N10154 1935 38 WP MM NOT_NAMED 1935-07-26 09:00:00 NR 18.6000 138.400 main 1556 1534 __________O___ -1 18.6000 138.400 7 10 307
1935203N10154 1935 38 WP MM NOT_NAMED 1935-07-26 12:00:00 NR 18.9579 137.923 main 1523 1459 __________P___ -1 18.9579 137.923 7 13 308
1935203N10154 1935 38 WP MM NOT_NAMED 1935-07-26 15:00:00 NR 19.3835 137.349 main 1455 1392 __________P___ -1 19.3835 137.349 7 14 308
1935203N10154 1935 38 WP MM NOT_NAMED 1935-07-26 18:00:00 NR 19.8422 136.725 main 1387 1311 __________P___ -1 19.8422 136.725 7 15 308
1935203N10154 1935 38 WP MM NOT_NAMED 1935-07-26 21:00:00 NR 20.3000 136.100 main 1311 1254 __________O___ -1 20.3000 136.100 7 14 312
1935203N10154 1935 38 WP MM NOT_NAMED 1935-07-27 00:00:00 NR 20.7650 135.628 main 1239 1182 __________P___ -1 20.7650 135.628 7 13 316
1935203N10154 1935 38 WP MM NOT_NAMED 1935-07-27 03:00:00 NR 21.2150 135.150 main 1179 1119 __________P___ -1 21.2150 135.150 7 13 311
1935203N10154 1935 38 WP MM NOT_NAMED 1935-07-27 06:00:00 NR 21.6077 134.597 main 1119 1064 __________P___ -1 21.6077 134.597 7 14 301
1935203N10154 1935 38 WP MM NOT_NAMED 1935-07-27 09:00:00 NR 21.9000 133.900 main 1064 1030 __________O___ -1 21.9000 133.900 4 16 285
1935203N10154 1935 38 WP MM NOT_NAMED 1935-07-27 12:00:00 NR 22.0374 132.905 main 1028 1000 __________P___ -1 22.0374 132.905 4 20 275
1935203N10154 1935 38 WP MM NOT_NAMED 1935-07-27 15:00:00 NR 22.0691 131.777 main 1000 940 __________P___ -1 22.0691 131.777 4 21 270
1935203N10154 1935 38 WP MM NOT_NAMED 1935-07-27 18:00:00 NR 22.0405 130.636 main 931 843 __________P___ -1 22.0405 130.636 4 20 268
1935203N10154 1935 38 WP MM NOT_NAMED 1935-07-27 21:00:00 NR 22.0000 129.600 main 834 767 __________O___ -1 22.0000 129.600 4 17 269
1935203N10154 1935 38 WP MM NOT_NAMED 1935-07-28 00:00:00 NR 22.0092 128.820 main 757 701 __________P___ -1 22.0092 128.820 4 13 271
1935203N10154 1935 38 WP MM NOT_NAMED 1935-07-28 03:00:00 NR 22.0231 128.157 main 701 645 __________P___ -1 22.0231 128.157 4 12 272
1935203N10154 1935 38 WP MM NOT_NAMED 1935-07-28 06:00:00 NR 22.0507 127.566 main 640 585 __________P___ -1 22.0507 127.566 4 11 274
1935203N10154 1935 38 WP MM NOT_NAMED 1935-07-28 09:00:00 NR 22.1000 127.000 main 585 522 __________O___ -1 22.1000 127.000 4 11 276
1935203N10154 1935 38 WP MM NOT_NAMED 1935-07-28 12:00:00 NR 22.1655 126.377 main 522 462 __________P___ -1 22.1655 126.377 4 12 278
1935203N10154 1935 38 WP MM NOT_NAMED 1935-07-28 15:00:00 NR 22.2541 125.770 main 459 397 __________P___ -1 22.2541 125.770 4 11 280
1935203N10154 1935 38 WP MM NOT_NAMED 1935-07-28 18:00:00 NR 22.3656 125.177 main 397 334 __________P___ -1 22.3656 125.177 4 11 283
1935203N10154 1935 38 WP MM NOT_NAMED 1935-07-28 21:00:00 NR 22.5000 124.600 main 334 282 __________O___ -1 22.5000 124.600 4 10 285
1935203N10154 1935 38 WP MM NOT_NAMED 1935-07-29 00:00:00 NR 22.6307 124.091 main 282 227 __________P___ -1 22.6307 124.091 4 10 287
1935203N10154 1935 38 WP MM NOT_NAMED 1935-07-29 03:00:00 NR 22.7863 123.587 main 227 174 __________P___ -1 22.7863 123.587 4 10 290
1935203N10154 1935 38 WP MM NOT_NAMED 1935-07-29 06:00:00 NR 22.9739 123.040 main 164 102 __________P___ -1 22.9739 123.040 4 12 291
1935203N10154 1935 38 WP MM NOT_NAMED 1935-07-29 09:00:00 NR 23.2000 122.400 main 102 20 __________O___ -1 23.2000 122.400 4 15 291
1935203N10154 1935 38 WP MM NOT_NAMED 1935-07-29 12:00:00 NR 23.5072 121.559 main 20 0 __________P___ -1 23.5072 121.559 4 17 292
1935203N10154 1935 38 WP MM NOT_NAMED 1935-07-29 15:00:00 NR 23.8412 120.627 main 0 0 __________P___ -1 23.8412 120.627 4 18 291
1935203N10154 1935 38 WP MM NOT_NAMED 1935-07-29 18:00:00 NR 24.1541 119.681 main 64 23 __________P___ -1 24.1541 119.681 4 18 289
1935203N10154 1935 38 WP MM NOT_NAMED 1935-07-29 21:00:00 NR 24.4000 118.800 main 23 0 __________O___ -1 24.4000 118.800 4 14 285
1935203N10154 1935 38 WP MM NOT_NAMED 1935-07-30 00:00:00 NR 24.5198 118.186 main 0 0 __________P___ -1 24.5198 118.186 4 11 279
1935203N10154 1935 38 WP MM NOT_NAMED 1935-07-30 03:00:00 NR 24.5735 117.636 main 0 0 __________P___ -1 24.5735 117.636 4 10 274
1935203N10154 1935 38 WP MM NOT_NAMED 1935-07-30 06:00:00 NR 24.5908 117.043 main 0 0 __________P___ -1 24.5908 117.043 4 12 271
1935203N10154 1935 38 WP MM NOT_NAMED 1935-07-30 09:00:00 NR 24.6000 116.300 main 0 0 __________O___ -1 24.6000 116.300 4 16 271
1935203N10154 1935 38 WP MM NOT_NAMED 1935-07-30 12:00:00 NR 24.6211 115.327 main 0 0 __________P___ -1 24.6211 115.327 4 19 271
1935203N10154 1935 38 WP MM NOT_NAMED 1935-07-30 15:00:00 NR 24.6503 114.160 main 0 0 __________P___ -1 24.6503 114.160 4 22 271
1935203N10154 1935 38 WP MM NOT_NAMED 1935-07-30 18:00:00 NR 24.6789 112.862 main 0 0 __________P___ -1 24.6789 112.862 4 24 271
1935203N10154 1935 38 WP MM NOT_NAMED 1935-07-30 21:00:00 NR 24.7000 111.500 main 0 __________O___ -1 24.7000 111.500 4 25 271

Digital Typhoon Data and Search

About IBTrACS Database

This database is a web-friendly format of International Best Track Archive for Climate Stewardship (IBTrACS), a global best track data archive curated by NOAA dating back to 1842.

Updated: 2021-10-19